Time;durP1;ratioP1;P1;durP2;ratioP2;P2;SDS_P1;SDS_P2;PMS_P1;PMS_P2;Temp;Humidity;BMP_temperature;BMP_pressure;BME280_temperature;BME280_humidity;BME280_pressure;Samples;Min_cycle;Max_cycle;Signal;HPM_P1;HPM_P2
2024/02/27 00:02:09;;;;;;;0.60;0.57;;;8.90;1.00;;;;;;7374885;19;20700;-70
2024/02/27 00:04:43;;;;;;;0.80;0.60;;;8.90;1.00;;;;;;7371974;19;20041;-71
2024/02/27 00:07:13;;;;;;;1.58;0.50;;;8.80;1.00;;;;;;7371548;19;20030;-71
2024/02/27 00:09:45;;;;;;;1.45;0.65;;;8.80;1.00;;;;;;7372091;19;20014;-71
2024/02/27 00:12:15;;;;;;;1.52;0.43;;;8.70;1.00;;;;;;7374743;19;20010;-71
2024/02/27 00:14:46;;;;;;;0.80;0.60;;;8.70;1.00;;;;;;7370788;19;20043;-70
2024/02/27 00:17:16;;;;;;;1.52;0.93;;;8.70;1.00;;;;;;7369861;19;20013;-70
2024/02/27 00:19:48;;;;;;;1.20;0.60;;;8.60;1.00;;;;;;7371398;19;20018;-70
2024/02/27 00:22:19;;;;;;;0.98;0.50;;;8.60;1.00;;;;;;7371318;19;20463;-70
2024/02/27 00:24:49;;;;;;;1.10;0.80;;;8.60;1.00;;;;;;7371538;19;21104;-69
2024/02/27 00:27:19;;;;;;;0.85;0.70;;;8.50;1.00;;;;;;7370183;19;20030;-69
2024/02/27 00:29:49;;;;;;;2.10;0.90;;;8.50;1.00;;;;;;7368458;19;20010;-70
2024/02/27 00:32:19;;;;;;;3.35;1.20;;;8.40;1.00;;;;;;7372747;19;20015;-70
2024/02/27 00:34:52;;;;;;;2.05;0.90;;;8.40;1.00;;;;;;7368420;19;20349;-71
2024/02/27 00:37:22;;;;;;;8.25;1.08;;;8.30;1.00;;;;;;7371702;19;20007;-70
2024/02/27 00:39:52;;;;;;;2.45;1.33;;;8.40;1.00;;;;;;7371784;19;20042;-71
2024/02/27 00:42:22;;;;;;;3.35;1.40;;;8.30;1.00;;;;;;7372030;19;20022;-70
2024/02/27 00:44:52;;;;;;;2.13;1.70;;;8.30;1.00;;;;;;7369419;19;20483;-71
2024/02/27 00:47:23;;;;;;;4.15;2.05;;;8.30;1.00;;;;;;7372367;19;20085;-70
2024/02/27 00:49:56;;;;;;;3.25;2.38;;;8.20;1.00;;;;;;7369430;19;20014;-70
2024/02/27 00:52:26;;;;;;;4.15;3.42;;;8.10;1.00;;;;;;7370648;19;20031;-70
2024/02/27 00:54:56;;;;;;;4.53;3.67;;;8.00;1.00;;;;;;7369594;19;20018;-70
2024/02/27 00:57:26;;;;;;;6.10;3.58;;;8.00;1.00;;;;;;7370592;19;20010;-70
2024/02/27 00:59:56;;;;;;;5.82;4.05;;;8.00;1.00;;;;;;7369741;19;20512;-71
2024/02/27 01:02:26;;;;;;;7.40;4.25;;;8.00;1.00;;;;;;7369158;19;20908;-69
2024/02/27 01:04:59;;;;;;;7.68;3.85;;;8.00;1.00;;;;;;7367409;19;20010;-70
2024/02/27 01:07:29;;;;;;;6.20;4.30;;;7.90;1.00;;;;;;7371780;19;20121;-71
2024/02/27 01:09:59;;;;;;;8.45;4.28;;;7.90;1.00;;;;;;7371518;19;20010;-70
2024/02/27 01:12:29;;;;;;;5.85;4.43;;;7.90;1.00;;;;;;7370741;19;20015;-71
2024/02/27 01:14:59;;;;;;;5.13;4.50;;;7.90;1.00;;;;;;7367553;19;20018;-70
2024/02/27 01:17:30;;;;;;;7.25;5.10;;;7.90;1.00;;;;;;7369138;19;20010;-70
2024/02/27 01:20:02;;;;;;;8.23;4.78;;;8.00;1.00;;;;;;7369990;19;20024;-70
2024/02/27 01:22:33;;;;;;;7.15;5.40;;;8.00;1.00;;;;;;7369984;19;20014;-70
2024/02/27 01:25:04;;;;;;;9.75;4.85;;;8.00;1.00;;;;;;7366368;19;20006;-71
2024/02/27 01:27:34;;;;;;;8.32;5.47;;;8.00;1.00;;;;;;7371307;19;20006;-70
2024/02/27 01:30:04;;;;;;;6.18;5.45;;;8.00;1.00;;;;;;7370305;19;20010;-70
2024/02/27 01:32:35;;;;;;;7.13;5.30;;;8.00;1.00;;;;;;7369500;19;20017;-70
2024/02/27 01:35:08;;;;;;;7.35;4.70;;;7.90;1.00;;;;;;7368607;19;20413;-70
2024/02/27 01:37:39;;;;;;;5.78;4.57;;;8.00;1.00;;;;;;7368688;19;20014;-70
2024/02/27 01:40:10;;;;;;;6.43;4.75;;;8.00;1.00;;;;;;7369544;19;20422;-69
2024/02/27 01:42:40;;;;;;;7.38;5.03;;;7.90;1.00;;;;;;7369416;19;20015;-71
2024/02/27 01:45:18;;;;;;;6.43;4.63;;;7.90;1.00;;;;;;7366845;19;20014;-69
2024/02/27 01:47:49;;;;;;;7.47;5.07;;;7.90;1.00;;;;;;7367642;19;20107;-70
2024/02/27 01:50:23;;;;;;;5.85;4.50;;;7.90;1.00;;;;;;7368512;19;20105;-70
2024/02/27 01:52:54;;;;;;;;;;;7.90;1.00;;;;;;7371974;19;20007;-70
2024/02/27 01:55:24;;;;;;;7.00;4.53;;;7.80;1.00;;;;;;7366994;19;19970;-71
2024/02/27 01:57:58;;;;;;;;;;;7.80;1.00;;;;;;7367664;19;20018;-71
2024/02/27 02:00:28;;;;;;;7.78;4.50;;;7.80;1.00;;;;;;7368329;19;19915;-70
2024/02/27 02:03:01;;;;;;;6.78;4.45;;;7.70;1.00;;;;;;7367254;19;20010;-70
2024/02/27 02:05:34;;;;;;;7.03;4.40;;;7.70;1.00;;;;;;7367695;19;20018;-70
2024/02/27 02:08:05;;;;;;;6.97;5.40;;;7.70;1.00;;;;;;7367459;19;20099;-70
2024/02/27 02:10:37;;;;;;;6.13;4.88;;;7.70;1.00;;;;;;7368558;19;20016;-70
2024/02/27 02:13:07;;;;;;;6.78;4.38;;;7.60;1.00;;;;;;7367562;19;20010;-70
2024/02/27 02:15:37;;;;;;;7.65;5.20;;;7.70;1.00;;;;;;7365158;19;20010;-70
2024/02/27 02:18:07;;;;;;;6.63;5.00;;;7.70;1.00;;;;;;7367614;19;20014;-71
2024/02/27 02:20:40;;;;;;;6.20;4.57;;;7.70;1.00;;;;;;7367656;19;20010;-70
2024/02/27 02:23:10;;;;;;;6.65;4.45;;;7.70;1.00;;;;;;7367854;19;20006;-70
2024/02/27 02:25:40;;;;;;;13.48;5.13;;;7.60;1.00;;;;;;7363904;19;20010;-71
2024/02/27 02:28:10;;;;;;;6.43;4.72;;;7.60;1.00;;;;;;7366787;19;20006;-70
2024/02/27 02:30:41;;;;;;;7.22;4.78;;;7.70;1.00;;;;;;7367694;19;20050;-73
2024/02/27 02:33:14;;;;;;;5.95;4.97;;;7.60;1.00;;;;;;7366632;19;20544;-70
2024/02/27 02:35:48;;;;;;;8.70;5.50;;;7.60;1.00;;;;;;7365451;19;20566;-69
2024/02/27 02:38:18;;;;;;;7.45;5.18;;;7.60;1.00;;;;;;7369434;19;20109;-68
2024/02/27 02:40:48;;;;;;;6.18;4.72;;;7.60;1.00;;;;;;7369903;19;20006;-69
2024/02/27 02:43:18;;;;;;;7.05;4.95;;;7.60;1.00;;;;;;7368036;19;20069;-69
2024/02/27 02:45:48;;;;;;;8.20;4.97;;;7.60;1.00;;;;;;7365984;19;22584;-69
2024/02/27 02:48:19;;;;;;;8.20;5.10;;;7.70;1.00;;;;;;7366292;19;20096;-70
2024/02/27 02:50:52;;;;;;;6.65;5.13;;;7.60;1.00;;;;;;7365904;19;20030;-70
2024/02/27 02:53:22;;;;;;;7.78;5.85;;;7.60;1.00;;;;;;7364696;19;20017;-70
2024/02/27 02:55:52;;;;;;;7.82;5.25;;;7.60;1.00;;;;;;7365229;19;20006;-70
2024/02/27 02:58:22;;;;;;;6.78;5.40;;;7.50;1.00;;;;;;7363455;19;21297;-70
2024/02/27 03:00:52;;;;;;;7.95;5.32;;;7.50;1.00;;;;;;7366090;19;20010;-70
2024/02/27 03:03:22;;;;;;;9.15;6.20;;;7.50;1.00;;;;;;7364795;19;20017;-71
2024/02/27 03:05:55;;;;;;;9.15;6.28;;;7.50;1.00;;;;;;7363666;19;20006;-69
2024/02/27 03:08:25;;;;;;;8.98;6.28;;;7.40;1.00;;;;;;7368095;19;20014;-71
2024/02/27 03:10:55;;;;;;;10.13;6.43;;;7.50;1.00;;;;;;7366288;19;20776;-70
2024/02/27 03:13:25;;;;;;;9.38;6.07;;;7.50;1.00;;;;;;7363651;19;20449;-70
2024/02/27 03:15:56;;;;;;;7.95;5.88;;;7.50;1.00;;;;;;7368690;19;20824;-70
2024/02/27 03:18:28;;;;;;;8.32;6.20;;;7.50;1.00;;;;;;7367669;19;20085;-71
2024/02/27 03:21:01;;;;;;;11.15;5.93;;;7.50;1.00;;;;;;7366809;19;21038;-71
2024/02/27 03:23:31;;;;;;;9.57;6.53;;;7.50;1.00;;;;;;7362537;19;20094;-70
2024/02/27 03:26:03;;;;;;;9.52;5.93;;;7.50;1.00;;;;;;7363605;19;20011;-71
2024/02/27 03:28:33;;;;;;;9.45;6.45;;;7.40;1.00;;;;;;7365435;19;20026;-70
2024/02/27 03:31:03;;;;;;;9.85;7.07;;;7.40;1.00;;;;;;7365595;19;20023;-71
2024/02/27 03:33:33;;;;;;;10.20;7.00;;;7.40;1.00;;;;;;7364966;19;20013;-71
2024/02/27 03:36:09;;;;;;;10.90;6.63;;;7.40;1.00;;;;;;7364300;19;20490;-70
2024/02/27 03:38:40;;;;;;;10.63;6.78;;;7.40;1.00;;;;;;7365733;19;20002;-71
2024/02/27 03:41:14;;;;;;;10.68;6.85;;;7.40;1.00;;;;;;7365783;19;20040;-70
2024/02/27 03:43:45;;;;;;;10.15;6.68;;;7.30;1.00;;;;;;7364554;19;20083;-71
2024/02/27 03:46:15;;;;;;;11.82;8.10;;;7.30;1.00;;;;;;7363521;19;20841;-70
2024/02/27 03:48:45;;;;;;;11.40;7.38;;;7.30;1.00;;;;;;7364534;19;20014;-70
2024/02/27 03:51:18;;;;;;;11.88;8.45;;;7.30;1.00;;;;;;7365303;19;20483;-70
2024/02/27 03:53:48;;;;;;;11.05;7.20;;;7.30;1.00;;;;;;7364762;19;20014;-71
2024/02/27 03:56:18;;;;;;;9.88;7.13;;;7.20;1.00;;;;;;7364119;19;20494;-70
2024/02/27 03:58:48;;;;;;;12.82;7.22;;;7.20;1.00;;;;;;7364882;19;20010;-71
2024/02/27 04:01:18;;;;;;;12.35;8.35;;;7.20;1.00;;;;;;7363389;19;20006;-71
2024/02/27 04:03:49;;;;;;;12.80;8.50;;;7.20;1.00;;;;;;7364828;19;20018;-69
2024/02/27 04:06:21;;;;;;;11.00;7.88;;;7.20;1.00;;;;;;7365228;19;20017;-69
2024/02/27 04:08:51;;;;;;;10.18;7.50;;;7.20;1.00;;;;;;7365947;19;20042;-69
2024/02/27 04:11:21;;;;;;;11.88;7.88;;;7.20;1.00;;;;;;7373685;19;20105;-70
2024/02/27 04:13:51;;;;;;;10.90;7.80;;;7.20;1.00;;;;;;7370853;19;20020;-69
2024/02/27 04:16:22;;;;;;;12.70;8.10;;;7.20;1.00;;;;;;7370598;19;20114;-70
2024/02/27 04:18:52;;;;;;;12.77;8.40;;;7.20;1.00;;;;;;7373247;19;20122;-69
2024/02/27 04:21:26;;;;;;;15.63;9.10;;;7.20;1.00;;;;;;7372607;19;20044;-70
2024/02/27 04:23:56;;;;;;;14.38;8.35;;;7.20;1.00;;;;;;7371943;19;20395;-70
2024/02/27 04:26:26;;;;;;;14.52;8.48;;;7.20;1.00;;;;;;7371078;19;20383;-71
2024/02/27 04:28:56;;;;;;;15.30;9.77;;;7.20;1.00;;;;;;7371788;19;20010;-70
2024/02/27 04:31:26;;;;;;;12.93;8.50;;;7.10;1.00;;;;;;7368072;19;20017;-70
2024/02/27 04:33:56;;;;;;;12.80;9.38;;;7.20;1.00;;;;;;7370441;19;20007;-70
2024/02/27 04:36:29;;;;;;;14.38;9.18;;;7.10;1.00;;;;;;7370786;19;20050;-68
2024/02/27 04:38:59;;;;;;;14.23;8.95;;;7.20;1.00;;;;;;7372127;19;20011;-69
2024/02/27 04:41:29;;;;;;;13.48;9.25;;;7.20;1.00;;;;;;7372459;19;20011;-68
2024/02/27 04:43:59;;;;;;;18.35;10.02;;;7.10;1.00;;;;;;7369381;19;20015;-70
2024/02/27 04:46:29;;;;;;;14.02;9.60;;;7.10;1.00;;;;;;7370641;19;20010;-70
2024/02/27 04:48:59;;;;;;;14.65;9.38;;;7.10;1.00;;;;;;7372132;19;20017;-69
2024/02/27 04:51:32;;;;;;;14.20;10.20;;;7.10;1.00;;;;;;7370403;19;20015;-69
2024/02/27 04:54:02;;;;;;;14.75;10.48;;;7.10;1.00;;;;;;7366907;19;20081;-69
2024/02/27 04:56:32;;;;;;;16.85;10.00;;;7.10;1.00;;;;;;7367611;19;20384;-70
2024/02/27 04:59:03;;;;;;;14.23;9.55;;;7.10;1.00;;;;;;7372033;19;20006;-69
2024/02/27 05:01:33;;;;;;;13.63;9.20;;;7.10;1.00;;;;;;7368069;19;20073;-70
2024/02/27 05:04:03;;;;;;;16.05;10.57;;;7.10;1.00;;;;;;7370520;19;20014;-69
2024/02/27 05:06:35;;;;;;;16.40;10.48;;;7.00;1.00;;;;;;7368869;19;20102;-69
2024/02/27 05:09:06;;;;;;;15.15;10.23;;;7.10;1.00;;;;;;7371298;19;20031;-69
2024/02/27 05:11:36;;;;;;;15.95;10.43;;;7.00;1.00;;;;;;7370589;19;20015;-69
2024/02/27 05:14:06;;;;;;;16.58;10.57;;;7.10;1.00;;;;;;7368970;19;20203;-70
2024/02/27 05:16:36;;;;;;;14.68;10.60;;;7.10;1.00;;;;;;7369519;19;20025;-69
2024/02/27 05:19:06;;;;;;;18.27;11.48;;;7.00;1.00;;;;;;7369202;19;20043;-69
2024/02/27 05:21:39;;;;;;;17.08;10.23;;;7.10;1.00;;;;;;7368986;19;20014;-70
2024/02/27 05:24:09;;;;;;;15.98;10.63;;;7.00;1.00;;;;;;7368293;19;20810;-70
2024/02/27 05:26:39;;;;;;;17.40;12.20;;;7.00;1.00;;;;;;7368380;19;20014;-70
2024/02/27 05:29:10;;;;;;;16.10;11.20;;;7.10;1.00;;;;;;7369596;19;20010;-69
2024/02/27 05:31:40;;;;;;;16.98;11.98;;;7.00;1.00;;;;;;7369768;19;20114;-69
2024/02/27 05:34:10;;;;;;;18.75;12.35;;;7.00;1.00;;;;;;7369079;19;20022;-69
2024/02/27 05:36:43;;;;;;;19.25;12.23;;;6.90;1.00;;;;;;7368587;19;20006;-70
2024/02/27 05:39:14;;;;;;;19.85;12.70;;;7.00;1.00;;;;;;7370834;19;20816;-70
2024/02/27 05:41:44;;;;;;;21.63;12.75;;;6.90;1.00;;;;;;7369725;19;20006;-69
2024/02/27 05:44:14;;;;;;;18.33;11.95;;;6.90;1.00;;;;;;7367777;19;20235;-69
2024/02/27 05:46:44;;;;;;;20.10;12.77;;;6.90;1.00;;;;;;7368877;19;20014;-69
2024/02/27 05:49:15;;;;;;;19.60;13.18;;;6.80;1.00;;;;;;7369674;19;20014;-69
2024/02/27 05:51:48;;;;;;;18.50;12.80;;;6.80;1.00;;;;;;7368805;19;20072;-69
2024/02/27 05:54:18;;;;;;;22.73;13.65;;;6.80;1.00;;;;;;7368487;19;20023;-69
2024/02/27 05:56:50;;;;;;;21.58;13.73;;;6.80;1.00;;;;;;7367897;19;20022;-69
2024/02/27 05:59:20;;;;;;;20.02;12.95;;;6.80;1.00;;;;;;7368587;19;20010;-69
2024/02/27 06:01:50;;;;;;;20.30;12.50;;;6.80;1.00;;;;;;7368292;19;20018;-70
2024/02/27 06:04:20;;;;;;;19.45;13.25;;;6.80;1.00;;;;;;7366870;19;20787;-70
2024/02/27 06:06:53;;;;;;;20.63;13.23;;;6.80;1.00;;;;;;7366696;19;20014;-69
2024/02/27 06:09:23;;;;;;;23.83;13.32;;;6.80;1.00;;;;;;7368885;19;20032;-69
2024/02/27 06:11:53;;;;;;;19.30;13.35;;;6.80;1.00;;;;;;7368427;19;20014;-69
2024/02/27 06:14:26;;;;;;;21.67;13.63;;;6.80;1.00;;;;;;7365885;19;20380;-70
2024/02/27 06:16:56;;;;;;;18.98;13.48;;;6.80;1.00;;;;;;7367394;19;20010;-69
2024/02/27 06:19:27;;;;;;;23.35;14.35;;;6.80;1.00;;;;;;7368257;19;20563;-69
2024/02/27 06:22:14;;;;;;;23.73;15.70;;;6.80;1.00;;;;;;7368026;19;20010;-71
2024/02/27 06:24:45;;;;;;;22.13;13.98;;;6.80;1.00;;;;;;7360433;19;20104;-68
2024/02/27 06:27:15;;;;;;;21.15;13.70;;;6.70;1.00;;;;;;7367978;19;20017;-68
2024/02/27 06:29:45;;;;;;;24.17;14.85;;;6.80;1.00;;;;;;7368218;19;20094;-68
2024/02/27 06:32:15;;;;;;;25.98;15.30;;;6.80;1.00;;;;;;7369219;19;20039;-70
2024/02/27 06:34:45;;;;;;;24.35;14.98;;;6.80;1.00;;;;;;7366693;19;20010;-69
2024/02/27 06:37:18;;;;;;;26.27;14.82;;;6.80;1.00;;;;;;7369591;19;20018;-68
2024/02/27 06:39:51;;;;;;;23.52;14.07;;;6.80;1.00;;;;;;7369268;19;20036;-68
2024/02/27 06:42:23;;;;;;;24.48;15.75;;;6.80;1.00;;;;;;7368778;19;20044;-68
2024/02/27 06:44:53;;;;;;;26.67;15.90;;;6.80;1.00;;;;;;7366581;19;20021;-68
2024/02/27 06:47:23;;;;;;;24.02;15.38;;;6.80;1.00;;;;;;7368385;19;20656;-69
2024/02/27 06:49:56;;;;;;;25.45;15.43;;;6.80;1.00;;;;;;7367950;19;20023;-69
2024/02/27 06:52:29;;;;;;;23.52;15.65;;;6.80;1.00;;;;;;7369364;19;20429;-69
2024/02/27 06:54:59;;;;;;;26.40;16.05;;;6.80;1.00;;;;;;7366555;19;20350;-69
2024/02/27 06:57:29;;;;;;;32.00;17.42;;;6.80;1.00;;;;;;7368062;19;20360;-69
2024/02/27 06:59:59;;;;;;;24.60;16.08;;;6.70;1.00;;;;;;7368214;19;20828;-69
2024/02/27 07:02:29;;;;;;;29.67;17.73;;;6.80;1.00;;;;;;7366504;19;20013;-70
2024/02/27 07:05:00;;;;;;;27.88;17.02;;;6.80;1.00;;;;;;7365436;19;20078;-69
2024/02/27 07:07:32;;;;;;;25.20;15.85;;;6.80;1.00;;;;;;7366544;19;20132;-70
2024/02/27 07:10:03;;;;;;;26.25;16.77;;;6.80;1.00;;;;;;7369186;19;20031;-71
2024/02/27 07:12:34;;;;;;;25.52;16.60;;;6.80;1.00;;;;;;7368309;19;20018;-69
2024/02/27 07:15:04;;;;;;;26.23;16.60;;;6.90;1.00;;;;;;7365477;19;20243;-69
2024/02/27 07:17:34;;;;;;;27.63;17.88;;;6.90;1.00;;;;;;7367112;19;20057;-68
2024/02/27 07:20:06;;;;;;;25.25;16.65;;;6.80;1.00;;;;;;7365226;19;20014;-69
2024/02/27 07:22:39;;;;;;;29.45;17.50;;;6.80;1.00;;;;;;7366186;19;20353;-69
2024/02/27 07:25:10;;;;;;;27.58;17.33;;;6.90;1.00;;;;;;7363686;19;20007;-68
2024/02/27 07:27:41;;;;;;;28.38;16.65;;;6.90;1.00;;;;;;7367241;19;20432;-69
2024/02/27 07:30:12;;;;;;;25.33;17.30;;;7.00;1.00;;;;;;7366881;19;20078;-68
2024/02/27 07:32:42;;;;;;;28.10;16.25;;;7.00;1.00;;;;;;7365343;19;20022;-69
2024/02/27 07:35:12;;;;;;;29.90;17.45;;;7.00;1.00;;;;;;7365039;19;20014;-69
2024/02/27 07:37:45;;;;;;;24.92;16.92;;;7.00;1.00;;;;;;7366241;19;20035;-69
2024/02/27 07:40:16;;;;;;;27.55;16.33;;;7.10;1.00;;;;;;7364475;19;20026;-69
2024/02/27 07:42:46;;;;;;;28.85;16.92;;;7.10;1.00;;;;;;7364989;19;20459;-68
2024/02/27 07:45:17;;;;;;;23.13;16.02;;;7.30;1.00;;;;;;7368525;19;20045;-68
2024/02/27 07:47:47;;;;;;;26.85;16.75;;;7.20;1.00;;;;;;7370843;19;20861;-70
2024/02/27 07:50:19;;;;;;;22.33;16.02;;;7.20;1.00;;;;;;7372252;19;20010;-68
2024/02/27 07:52:51;;;;;;;24.25;15.35;;;7.30;1.00;;;;;;7371018;19;20034;-69
2024/02/27 07:55:21;;;;;;;21.42;15.02;;;7.30;1.00;;;;;;7370054;19;20483;-68
2024/02/27 07:57:51;;;;;;;23.67;15.45;;;7.40;1.00;;;;;;7371188;19;20006;-69
2024/02/27 08:00:22;;;;;;;25.27;15.00;;;7.30;1.00;;;;;;7371419;19;20010;-69
2024/02/27 08:02:52;;;;;;;22.73;14.60;;;7.30;1.00;;;;;;7371370;19;20011;-68
2024/02/27 08:05:25;;;;;;;25.27;15.90;;;7.40;1.00;;;;;;7370607;19;20011;-68
2024/02/27 08:07:58;;;;;;;23.48;15.40;;;7.50;1.00;;;;;;7370478;19;20022;-70
2024/02/27 08:10:29;;;;;;;23.77;15.65;;;7.60;1.00;;;;;;7372577;19;20017;-70
2024/02/27 08:12:59;;;;;;;25.08;15.80;;;7.60;1.00;;;;;;7366714;19;20602;-68
2024/02/27 08:15:29;;;;;;;22.45;14.57;;;7.90;1.00;;;;;;7369747;19;20030;-68
2024/02/27 08:17:59;;;;;;;21.98;14.70;;;7.90;1.00;;;;;;7371231;19;20010;-68
2024/02/27 08:20:29;;;;;;;22.48;14.45;;;7.90;1.00;;;;;;7371350;19;20492;-69
2024/02/27 08:23:02;;;;;;;21.48;14.65;;;8.00;1.00;;;;;;7371525;19;20003;-69
2024/02/27 08:25:32;;;;;;;23.10;15.95;;;8.20;1.00;;;;;;7369329;19;20025;-69
2024/02/27 08:28:02;;;;;;;20.38;13.80;;;8.20;1.00;;;;;;7371976;19;21009;-69
2024/02/27 08:30:32;;;;;;;24.42;16.83;;;8.30;1.00;;;;;;7372612;19;20006;-68
2024/02/27 08:33:03;;;;;;;22.58;14.27;;;8.60;1.00;;;;;;7372012;19;20810;-70
2024/02/27 08:35:33;;;;;;;21.63;15.30;;;8.70;1.00;;;;;;7370083;19;20027;-69
2024/02/27 08:38:06;;;;;;;20.33;14.10;;;8.40;1.00;;;;;;7371142;19;20007;-68
2024/02/27 08:40:37;;;;;;;21.80;16.08;;;8.20;1.00;;;;;;7372180;19;20070;-68
2024/02/27 08:43:07;;;;;;;21.45;15.20;;;8.20;1.00;;;;;;7371705;19;20595;-69
2024/02/27 08:45:37;;;;;;;22.08;15.40;;;8.10;1.00;;;;;;7370414;19;20018;-70
2024/02/27 08:48:07;;;;;;;19.73;14.50;;;8.20;1.00;;;;;;7372263;19;20473;-70
2024/02/27 08:50:38;;;;;;;22.83;14.93;;;8.30;1.00;;;;;;7372237;19;20052;-70
2024/02/27 08:53:11;;;;;;;19.90;15.20;;;8.10;1.00;;;;;;7371944;19;20006;-69
2024/02/27 08:55:40;;;;;;;20.98;15.00;;;8.20;1.00;;;;;;7366901;19;20014;-70
2024/02/27 08:58:11;;;;;;;23.33;16.33;;;8.40;1.00;;;;;;7370706;19;20086;-70
2024/02/27 09:00:41;;;;;;;21.23;15.43;;;8.40;1.00;;;;;;7371665;19;20497;-70
2024/02/27 09:03:11;;;;;;;24.75;15.93;;;8.60;1.00;;;;;;7372573;19;20140;-70
2024/02/27 09:05:43;;;;;;;21.02;15.02;;;8.70;1.00;;;;;;7368168;19;20089;-68
2024/02/27 09:08:17;;;;;;;23.98;16.25;;;8.40;1.00;;;;;;7372199;19;20390;-69
2024/02/27 09:10:47;;;;;;;23.75;15.23;;;8.30;1.00;;;;;;7370818;19;20006;-69
2024/02/27 09:13:17;;;;;;;23.38;15.95;;;8.30;1.00;;;;;;7368886;19;20018;-69
2024/02/27 09:15:47;;;;;;;24.98;16.52;;;8.40;1.00;;;;;;7368305;19;20482;-69
2024/02/27 09:18:17;;;;;;;25.35;16.38;;;8.40;1.00;;;;;;7368919;19;20018;-69
2024/02/27 09:20:48;;;;;;;23.75;15.88;;;8.60;1.00;;;;;;7371394;19;20035;-69
2024/02/27 09:23:21;;;;;;;25.13;17.17;;;8.60;1.00;;;;;;7367319;19;20010;-69
2024/02/27 09:25:51;;;;;;;22.20;15.88;;;8.70;1.00;;;;;;7367067;19;20356;-69
2024/02/27 09:28:21;;;;;;;24.63;16.23;;;8.80;1.00;;;;;;7368907;19;21802;-68
2024/02/27 09:30:51;;;;;;;23.15;15.95;;;8.90;1.00;;;;;;7369119;19;20082;-69
2024/02/27 09:33:21;;;;;;;21.63;15.85;;;8.90;1.00;;;;;;7368309;19;20010;-69
2024/02/27 09:35:51;;;;;;;25.17;16.27;;;9.00;1.00;;;;;;7368012;19;20910;-69
2024/02/27 09:38:24;;;;;;;24.30;15.40;;;9.20;1.00;;;;;;7367259;19;20033;-69
2024/02/27 09:40:55;;;;;;;23.30;16.50;;;8.80;1.00;;;;;;7369539;19;20006;-69
2024/02/27 09:43:26;;;;;;;23.63;16.60;;;9.20;1.00;;;;;;7367252;19;20053;-69
2024/02/27 09:45:57;;;;;;;24.20;16.48;;;9.40;1.00;;;;;;7367543;19;20023;-69
2024/02/27 09:48:28;;;;;;;23.40;16.65;;;9.40;1.00;;;;;;7368470;19;20026;-70
2024/02/27 09:51:01;;;;;;;25.30;16.90;;;9.30;1.00;;;;;;7366698;19;20757;-70
2024/02/27 09:53:34;;;;;;;25.13;17.52;;;9.10;1.00;;;;;;7368014;19;20006;-70
2024/02/27 09:56:08;;;;;;;27.33;17.08;;;9.10;1.00;;;;;;7367950;19;20025;-69
2024/02/27 09:58:38;;;;;;;22.15;17.33;;;9.30;1.00;;;;;;7369830;19;20021;-69
2024/02/27 10:01:13;;;;;;;25.10;17.40;;;9.40;1.00;;;;;;7371098;19;20010;-69
2024/02/27 10:03:45;;;;;;;25.77;18.20;;;9.30;1.00;;;;;;7366175;19;20017;-69
2024/02/27 10:06:17;;;;;;;22.75;16.60;;;9.40;1.00;;;;;;7367336;19;20086;-68
2024/02/27 10:08:56;;;;;;;27.30;17.85;;;9.10;1.00;;;;;;7367191;19;20010;-69
2024/02/27 10:11:26;;;;;;;25.38;18.02;;;9.40;1.00;;;;;;7367512;19;20792;-69
2024/02/27 10:13:56;;;;;;;23.10;17.70;;;9.40;1.00;;;;;;7366873;19;20377;-69
2024/02/27 10:16:26;;;;;;;24.10;17.60;;;9.30;1.00;;;;;;7366706;19;20767;-70
2024/02/27 10:18:57;;;;;;;25.42;18.40;;;9.40;1.00;;;;;;7367939;19;20015;-70
2024/02/27 10:21:29;;;;;;;23.65;17.75;;;9.30;1.00;;;;;;7367190;19;20953;-68
2024/02/27 10:24:02;;;;;;;27.85;19.10;;;9.40;1.00;;;;;;7366205;19;20018;-69
2024/02/27 10:26:32;;;;;;;26.70;19.13;;;9.40;1.00;;;;;;7366002;19;20022;-70
2024/02/27 10:29:03;;;;;;;28.05;19.48;;;9.30;1.00;;;;;;7367152;19;20022;-69
2024/02/27 10:31:40;;;;;;;27.17;19.48;;;9.10;1.00;;;;;;7368415;19;20825;-69
2024/02/27 10:34:10;;;;;;;26.92;18.45;;;9.20;1.00;;;;;;7367786;19;20022;-70
2024/02/27 10:36:40;;;;;;;29.83;19.83;;;9.40;1.00;;;;;;7366165;19;20014;-69
2024/02/27 10:39:13;;;;;;;28.85;19.60;;;9.60;1.00;;;;;;7368037;19;20006;-70
2024/02/27 10:41:43;;;;;;;27.52;20.08;;;9.50;1.00;;;;;;7367795;19;20031;-69
2024/02/27 10:44:14;;;;;;;29.55;20.63;;;9.40;1.00;;;;;;7366802;19;20032;-69
2024/02/27 10:46:44;;;;;;;27.55;19.10;;;9.40;1.00;;;;;;7368381;19;20018;-68
2024/02/27 10:49:14;;;;;;;27.58;20.55;;;9.30;1.00;;;;;;7368365;19;20474;-69
2024/02/27 10:51:45;;;;;;;27.83;19.58;;;9.30;1.00;;;;;;7368255;19;20006;-69
2024/02/27 10:54:19;;;;;;;28.67;20.20;;;9.60;1.00;;;;;;7363257;19;20020;-69
2024/02/27 10:56:49;;;;;;;27.92;19.65;;;9.40;1.00;;;;;;7367960;19;20015;-69
2024/02/27 10:59:20;;;;;;;30.63;21.30;;;9.30;1.00;;;;;;7368631;19;20654;-70
2024/02/27 11:01:50;;;;;;;32.05;21.35;;;9.40;1.00;;;;;;7368258;19;20044;-70
2024/02/27 11:04:25;;;;;;;29.42;20.98;;;9.30;1.00;;;;;;7367806;19;20525;-68
2024/02/27 11:07:00;;;;;;;31.23;21.52;;;9.20;1.00;;;;;;7363221;19;20049;-70
2024/02/27 11:09:35;;;;;;;28.52;21.25;;;9.50;1.00;;;;;;7365605;19;20025;-69
2024/02/27 11:12:06;;;;;;;29.58;21.17;;;9.50;1.00;;;;;;7367645;19;20036;-70
2024/02/27 11:14:40;;;;;;;28.83;21.27;;;9.60;1.00;;;;;;7366969;19;20045;-71
2024/02/27 11:17:14;;;;;;;33.45;20.42;;;9.70;1.00;;;;;;7365530;19;20010;-70
2024/02/27 11:19:49;;;;;;;30.60;20.02;;;9.50;1.00;;;;;;7365175;19;20074;-69
2024/02/27 11:22:22;;;;;;;28.30;20.70;;;9.50;1.00;;;;;;7366740;19;20014;-69
2024/02/27 11:24:54;;;;;;;30.35;21.52;;;9.60;1.00;;;;;;7364323;19;20010;-70
2024/02/27 11:27:27;;;;;;;26.85;19.80;;;9.60;1.00;;;;;;7365927;19;20018;-69
2024/02/27 11:29:58;;;;;;;26.42;19.90;;;9.70;1.00;;;;;;7363034;19;20023;-69
2024/02/27 11:32:32;;;;;;;31.90;21.02;;;9.60;1.00;;;;;;7365740;19;20452;-71
2024/02/27 11:35:07;;;;;;;28.95;19.27;;;9.90;1.00;;;;;;7365158;19;20006;-70
2024/02/27 11:37:37;;;;;;;27.67;20.35;;;9.70;1.00;;;;;;7363175;19;20602;-70
2024/02/27 11:40:12;;;;;;;26.52;19.65;;;9.60;1.00;;;;;;7364066;19;20018;-69
2024/02/27 11:42:44;;;;;;;29.42;20.58;;;9.70;1.00;;;;;;7364172;19;20997;-68
2024/02/27 11:45:18;;;;;;;26.63;20.45;;;9.50;1.00;;;;;;7361640;19;20015;-69
2024/02/27 11:47:53;;;;;;;29.90;21.40;;;9.70;1.00;;;;;;7364026;19;20062;-68
2024/02/27 11:50:48;;;;;;;24.60;18.83;;;9.70;1.00;;;;;;7364855;19;20007;-70
2024/02/27 11:53:35;;;;;;;29.23;18.98;;;9.80;1.00;;;;;;6855041;19;2004483;-68
2024/02/27 11:56:10;;;;;;;25.75;18.58;;;9.70;1.00;;;;;;7361849;19;20070;-69
2024/02/27 11:58:40;;;;;;;29.58;20.45;;;9.70;1.00;;;;;;7363902;19;20064;-69
2024/02/27 12:01:15;;;;;;;25.77;19.35;;;9.80;1.00;;;;;;7364258;19;20011;-69
2024/02/27 12:03:46;;;;;;;26.75;19.05;;;9.80;1.00;;;;;;7361881;19;20018;-69
2024/02/27 12:06:17;;;;;;;26.85;19.38;;;9.80;1.00;;;;;;7362785;19;20033;-69
2024/02/27 12:08:48;;;;;;;26.38;18.88;;;10.10;1.00;;;;;;7363917;19;20030;-69
2024/02/27 12:11:23;;;;;;;27.35;20.52;;;9.80;1.00;;;;;;7364456;19;20015;-68
2024/02/27 12:13:53;;;;;;;30.33;19.70;;;9.80;1.00;;;;;;7362226;19;20018;-69
2024/02/27 12:16:24;;;;;;;28.00;19.48;;;9.80;1.00;;;;;;7364815;19;20011;-70
2024/02/27 12:18:59;;;;;;;28.25;20.17;;;9.60;1.00;;;;;;7364974;19;20013;-69
2024/02/27 12:21:29;;;;;;;;;;;9.40;1.00;;;;;;7366751;19;20037;-69
2024/02/27 12:24:13;;;;;;;29.92;19.27;;;9.50;1.00;;;;;;7365177;19;20340;-69
2024/02/27 12:26:47;;;;;;;26.85;18.77;;;9.50;1.00;;;;;;6855124;19;2004213;-69
2024/02/27 12:29:17;;;;;;;29.77;20.30;;;9.60;1.00;;;;;;7368439;19;20015;-69
2024/02/27 12:31:48;;;;;;;26.17;19.65;;;9.60;1.00;;;;;;7372082;19;20015;-69
2024/02/27 12:34:19;;;;;;;29.40;19.83;;;9.50;1.00;;;;;;7367826;19;20078;-69
2024/02/27 12:36:49;;;;;;;28.85;20.40;;;9.40;1.00;;;;;;7368648;19;20010;-69
2024/02/27 12:39:19;;;;;;;28.17;19.98;;;9.40;1.00;;;;;;7369358;19;20487;-70
2024/02/27 12:41:52;;;;;;;28.08;19.70;;;9.30;1.00;;;;;;7370415;19;20017;-68
2024/02/27 12:44:22;;;;;;;28.65;20.25;;;9.30;1.00;;;;;;7369525;19;20083;-70
2024/02/27 12:46:53;;;;;;;30.73;20.75;;;9.40;1.00;;;;;;7368761;19;20085;-69
2024/02/27 12:49:24;;;;;;;29.65;20.25;;;9.70;1.00;;;;;;7368719;19;20010;-69
2024/02/27 12:51:55;;;;;;;29.65;20.02;;;9.70;1.00;;;;;;7369347;19;20006;-71
2024/02/27 12:54:25;;;;;;;26.38;20.13;;;9.70;1.00;;;;;;7368957;19;20014;-69
2024/02/27 12:56:58;;;;;;;26.52;18.58;;;9.80;1.00;;;;;;7369616;19;20013;-69
2024/02/27 12:59:28;;;;;;;29.55;19.85;;;9.80;1.00;;;;;;7370762;19;20022;-69
2024/02/27 13:01:58;;;;;;;29.90;20.40;;;10.00;1.00;;;;;;7368948;19;20034;-69
2024/02/27 13:04:28;;;;;;;28.15;19.58;;;9.90;1.00;;;;;;7369775;19;20391;-70
2024/02/27 13:06:58;;;;;;;33.70;20.77;;;10.00;1.00;;;;;;7369116;19;20015;-71
2024/02/27 13:09:29;;;;;;;30.65;20.35;;;9.80;1.00;;;;;;7371149;19;20379;-69
2024/02/27 13:12:10;;;;;;;29.48;20.65;;;9.80;1.00;;;;;;7370687;19;20007;-69
2024/02/27 13:14:40;;;;;;;25.63;19.45;;;9.80;1.00;;;;;;7368466;19;20018;-69